Terminal Aerodrome Forecast
Issued by NWS

Home | Current Version | Previous Version | Text Only | Print | Product List | Glossary On
Versions: 1 2 3 4 5 6 7 8 9 10 11 12 13 14 15 16 17 18 19 20 21 22 23 24 25 26 27 28 29 30 31 32 33 34 35 36 37 38 39
000
FTUS45 KCYS 041222 AAA
TAFRWL
TAF AMD
KRWL 041222Z 0412/0512 24017KT P6SM -RA OVC040
      TEMPO 0412/0414 BKN022 OVC040
     FM041600 28025G35KT P6SM VCTS BKN100CB
     FM050300 25008KT P6SM SKC=

USA.gov is the U.S. government's official web portal to all federal, state and local government web resources and services.